Lincoln, New Mexico
Current Conditions -  °F | °C
As of 11:15 AM on Saturday 25 Oct 2014 (Local Time) from KSRR Reporting Station
Clear Clear  
Wind Chill: 68°   Ceiling: Unl
Heat Index: 68°   Visibility: 10mi
Dew Point: 37°   Wind: 6mph
Humidity: 33%   Direction: 340°NNW
Pressure: 30.4"   Gusts: NA
Location:  33.49°N, 105.39°W
Report Text: KSRR 251715Z AUTO 34005KT 10SM CLR 20/03 A3040 RMK AO2
Loading
Personal Weather Stations






























Interactive Weather Map
Tropical Storm Tracking
New forecast layout! Learn more

10-Day Weather Forecast

Advertisements
Track Severe Weather on mobile